Time;durP1;ratioP1;P1;durP2;ratioP2;P2;SDS_P1;SDS_P2;PMS_P1;PMS_P2;Temp;Humidity;BMP_temperature;BMP_pressure;BME280_temperature;BME280_humidity;BME280_pressure;Samples;Min_cycle;Max_cycle;Signal;HPM_P1;HPM_P2
2021/01/19 00:00:13;;;;;;;11.20;4.63;;;3.40;99.90;;;;;;5003472;28;20107;-67
2021/01/19 00:02:41;;;;;;;9.20;4.03;;;3.40;99.90;;;;;;4997526;28;20053;-68
2021/01/19 00:05:08;;;;;;;10.83;3.60;;;3.40;99.90;;;;;;5000791;28;20042;-67
2021/01/19 00:07:35;;;;;;;9.63;3.60;;;3.50;99.90;;;;;;5004150;28;20050;-68
2021/01/19 00:10:01;;;;;;;12.07;4.33;;;3.50;99.90;;;;;;5005530;28;20046;-67
2021/01/19 00:12:28;;;;;;;9.37;3.80;;;3.40;99.90;;;;;;5015997;28;20046;-68
2021/01/19 00:14:55;;;;;;;7.93;3.20;;;3.30;99.90;;;;;;5016784;28;20058;-68
2021/01/19 00:17:21;;;;;;;9.80;4.23;;;3.30;99.90;;;;;;5022035;28;20495;-68
2021/01/19 00:19:49;;;;;;;13.23;4.30;;;3.50;99.90;;;;;;5006968;28;20050;-68
2021/01/19 00:22:15;;;;;;;8.87;4.10;;;3.40;99.90;;;;;;5005599;28;20566;-68
2021/01/19 00:24:42;;;;;;;13.23;4.17;;;3.40;99.90;;;;;;5017727;28;20068;-68
2021/01/19 00:27:08;;;;;;;10.73;4.40;;;3.50;99.90;;;;;;5009157;28;20046;-67
2021/01/19 00:29:35;;;;;;;10.03;3.80;;;3.40;99.90;;;;;;5007713;28;20508;-67
2021/01/19 00:32:01;;;;;;;8.70;3.30;;;3.50;99.90;;;;;;5002001;28;20050;-68
2021/01/19 00:34:28;;;;;;;8.87;3.60;;;3.40;99.90;;;;;;5006124;28;20536;-68
2021/01/19 00:36:55;;;;;;;16.13;4.43;;;3.40;99.90;;;;;;5006545;28;20046;-68
2021/01/19 00:39:22;;;;;;;9.37;3.80;;;3.50;99.90;;;;;;5007674;28;20107;-67
2021/01/19 00:41:48;;;;;;;9.83;3.53;;;3.40;99.90;;;;;;5007996;28;20057;-67
2021/01/19 00:44:15;;;;;;;7.87;3.60;;;3.40;99.90;;;;;;5016592;28;20125;-68
2021/01/19 00:46:41;;;;;;;10.90;3.60;;;3.40;99.90;;;;;;5014133;28;20127;-68
2021/01/19 00:49:08;;;;;;;8.53;3.50;;;3.40;99.90;;;;;;5007794;28;20497;-67
2021/01/19 00:51:35;;;;;;;11.43;3.53;;;3.50;99.90;;;;;;5003304;28;20052;-67
2021/01/19 00:54:04;;;;;;;9.83;3.50;;;3.40;99.90;;;;;;5002370;28;20055;-67
2021/01/19 00:56:37;;;;;;;11.67;3.77;;;3.40;99.90;;;;;;5005567;28;20057;-67
2021/01/19 00:59:04;;;;;;;10.57;3.87;;;3.30;99.90;;;;;;4989491;28;20061;-67
2021/01/19 01:01:31;;;;;;;14.03;3.30;;;3.30;99.90;;;;;;5005040;28;20050;-67
2021/01/19 01:04:01;;;;;;;9.80;2.97;;;3.40;99.90;;;;;;5003973;28;20100;-67
2021/01/19 01:06:27;;;;;;;9.50;3.40;;;3.40;99.90;;;;;;5005218;28;20050;-67
2021/01/19 01:08:54;;;;;;;9.47;2.97;;;3.50;99.90;;;;;;5004989;28;20054;-68
2021/01/19 01:11:21;;;;;;;7.67;3.10;;;3.40;99.90;;;;;;5005262;28;20049;-67
2021/01/19 01:13:48;;;;;;;12.47;3.50;;;3.40;99.90;;;;;;5002839;28;20511;-67
2021/01/19 01:16:14;;;;;;;10.87;3.23;;;3.30;99.90;;;;;;5009382;28;20100;-67
2021/01/19 01:18:41;;;;;;;7.93;2.77;;;3.30;99.90;;;;;;5017570;28;20050;-67
2021/01/19 01:21:11;;;;;;;8.53;3.23;;;3.20;99.90;;;;;;5004730;28;20053;-67
2021/01/19 01:23:37;;;;;;;13.57;3.30;;;3.20;99.90;;;;;;5004039;28;20056;-67
2021/01/19 01:26:04;;;;;;;11.47;3.27;;;3.20;99.90;;;;;;5004825;28;20464;-68
2021/01/19 01:28:32;;;;;;;11.57;2.90;;;3.10;99.90;;;;;;5019987;28;20479;-67
2021/01/19 01:30:58;;;;;;;13.53;3.37;;;3.10;99.90;;;;;;4987942;28;20467;-67
2021/01/19 01:33:25;;;;;;;7.43;2.90;;;3.00;99.90;;;;;;5004076;28;20049;-67
2021/01/19 01:35:51;;;;;;;11.70;3.63;;;3.30;99.90;;;;;;5004763;28;20068;-67
2021/01/19 01:38:18;;;;;;;9.23;2.87;;;3.40;99.90;;;;;;5018851;28;20049;-68
2021/01/19 01:40:44;;;;;;;8.70;3.00;;;3.30;99.90;;;;;;5023339;28;20103;-68
2021/01/19 01:43:14;;;;;;;9.90;2.73;;;3.40;99.90;;;;;;5023072;28;20057;-68
2021/01/19 01:45:42;;;;;;;10.47;2.90;;;3.40;99.90;;;;;;5005171;28;20503;-67
2021/01/19 01:48:10;;;;;;;9.80;2.73;;;3.50;99.90;;;;;;5003881;28;20161;-68
2021/01/19 01:50:38;;;;;;;7.00;2.77;;;3.40;99.90;;;;;;5004709;28;20504;-67
2021/01/19 01:53:05;;;;;;;6.27;3.03;;;3.40;99.90;;;;;;5004075;28;20061;-67
2021/01/19 01:55:32;;;;;;;10.73;2.87;;;3.40;99.90;;;;;;5001991;28;20046;-67
2021/01/19 01:57:59;;;;;;;9.37;2.70;;;3.30;99.90;;;;;;5003597;28;20050;-67
2021/01/19 02:00:26;;;;;;;8.20;2.60;;;3.30;99.90;;;;;;5003559;28;20053;-67
2021/01/19 02:02:54;;;;;;;8.90;2.60;;;3.40;99.90;;;;;;5002907;28;20061;-67
2021/01/19 02:05:21;;;;;;;13.37;4.17;;;3.30;99.90;;;;;;5010356;28;20570;-68
2021/01/19 02:08:07;;;;;;;6.00;2.70;;;3.20;99.90;;;;;;5012791;28;20578;-67
2021/01/19 02:10:46;;;;;;;11.87;3.13;;;3.30;99.90;;;;;;5003770;28;20424;-67
2021/01/19 02:13:24;;;;;;;5.93;2.70;;;3.30;99.90;;;;;;5001887;28;20062;-67
2021/01/19 02:15:57;;;;;;;11.37;3.07;;;3.30;99.90;;;;;;5002187;28;20053;-67
2021/01/19 02:18:33;;;;;;;12.47;2.30;;;3.20;99.90;;;;;;4998768;28;20101;-67
2021/01/19 02:21:38;;;;;;;7.60;2.30;;;3.30;99.90;;;;;;4988317;28;20424;-67
2021/01/19 02:24:11;;;;;;;7.90;2.50;;;3.30;99.90;;;;;;4990071;28;20587;-67
2021/01/19 02:26:58;;;;;;;9.40;2.53;;;3.30;99.90;;;;;;5019055;28;20467;-67
2021/01/19 02:29:45;;;;;;;7.33;2.50;;;3.40;99.90;;;;;;5003370;28;20054;-67
2021/01/19 02:32:19;;;;;;;7.90;2.17;;;3.20;99.90;;;;;;5000064;28;20085;-67
2021/01/19 02:34:51;;;;;;;6.07;1.90;;;3.30;99.90;;;;;;5005749;28;20175;-67
2021/01/19 02:37:21;;;;;;;10.73;2.53;;;3.20;99.90;;;;;;5023692;28;20045;-67
2021/01/19 02:39:51;;;;;;;6.53;2.03;;;3.20;99.90;;;;;;5023482;28;20389;-67
2021/01/19 02:42:21;;;;;;;10.70;2.70;;;3.10;99.90;;;;;;5008139;28;20046;-67
2021/01/19 02:44:50;;;;;;;6.53;2.27;;;3.30;99.90;;;;;;5003386;28;20057;-67
2021/01/19 02:47:19;;;;;;;6.33;2.63;;;3.20;99.90;;;;;;5017384;28;20057;-67
2021/01/19 02:49:46;;;;;;;8.17;2.60;;;3.30;99.90;;;;;;5023221;28;20045;-67
2021/01/19 02:52:14;;;;;;;8.30;1.83;;;3.20;99.90;;;;;;5003388;28;20087;-68
2021/01/19 02:54:42;;;;;;;6.20;1.80;;;3.20;99.90;;;;;;4995861;28;20509;-67
2021/01/19 02:57:31;;;;;;;8.00;2.00;;;3.30;99.90;;;;;;4994402;28;20507;-68
2021/01/19 03:00:07;;;;;;;7.73;2.40;;;3.20;99.90;;;;;;5003308;28;20840;-67
2021/01/19 03:02:36;;;;;;;5.40;1.98;;;3.20;99.90;;;;;;4983161;28;20062;-67
2021/01/19 03:05:05;;;;;;;6.90;2.10;;;3.20;99.90;;;;;;5003213;28;20054;-67
2021/01/19 03:07:36;;;;;;;7.70;2.37;;;3.10;99.90;;;;;;5009774;28;20049;-67
2021/01/19 03:10:04;;;;;;;9.87;2.70;;;3.00;99.90;;;;;;5022780;28;20045;-67
2021/01/19 03:12:33;;;;;;;10.37;2.40;;;3.10;99.90;;;;;;5013597;28;20424;-67
2021/01/19 03:15:00;;;;;;;7.90;2.27;;;3.10;99.90;;;;;;5009561;28;20041;-67
2021/01/19 03:17:27;;;;;;;7.90;2.10;;;3.00;99.90;;;;;;5010868;28;20073;-68
2021/01/19 03:19:54;;;;;;;10.00;2.10;;;3.00;99.90;;;;;;4998586;28;20042;-67
2021/01/19 03:22:21;;;;;;;6.30;2.33;;;3.00;99.90;;;;;;4997116;28;20042;-67
2021/01/19 03:24:47;;;;;;;8.13;2.07;;;3.00;99.90;;;;;;5000426;28;20046;-67
2021/01/19 03:27:14;;;;;;;8.67;2.37;;;3.00;99.90;;;;;;5003078;28;20050;-67
2021/01/19 03:29:40;;;;;;;11.70;2.43;;;2.90;99.90;;;;;;5003893;28;20054;-67
2021/01/19 03:32:07;;;;;;;7.83;1.70;;;2.90;99.90;;;;;;5004180;28;20060;-67
2021/01/19 03:34:33;;;;;;;9.80;2.13;;;3.00;99.90;;;;;;5003302;28;20104;-67
2021/01/19 03:37:01;;;;;;;7.60;2.50;;;2.90;99.90;;;;;;5004871;28;20042;-67
2021/01/19 03:39:28;;;;;;;7.80;2.43;;;2.80;99.90;;;;;;5004755;28;20046;-67
2021/01/19 03:41:55;;;;;;;4.97;2.10;;;2.70;99.90;;;;;;5004300;28;20102;-66
2021/01/19 03:44:21;;;;;;;10.57;2.40;;;2.70;99.90;;;;;;5003179;28;20068;-66
2021/01/19 03:46:48;;;;;;;7.83;2.20;;;2.60;99.90;;;;;;5004580;28;20528;-67
2021/01/19 03:49:14;;;;;;;8.30;1.90;;;2.60;99.90;;;;;;5023156;28;20476;-67
2021/01/19 03:51:41;;;;;;;7.70;2.80;;;2.60;99.90;;;;;;5018128;28;20049;-67
2021/01/19 03:54:09;;;;;;;12.73;2.20;;;2.60;99.90;;;;;;5003971;28;20503;-67
2021/01/19 03:56:35;;;;;;;7.93;2.23;;;2.60;99.90;;;;;;5007983;28;20042;-67
2021/01/19 03:59:02;;;;;;;7.73;2.07;;;2.50;99.90;;;;;;5007953;28;20082;-67
2021/01/19 04:01:29;;;;;;;7.87;2.23;;;2.50;99.90;;;;;;5007973;28;20570;-66
2021/01/19 04:03:55;;;;;;;8.10;2.10;;;2.40;99.90;;;;;;5006529;28;20049;-67
2021/01/19 04:06:22;;;;;;;6.57;2.10;;;2.50;99.90;;;;;;5013661;28;20042;-67
2021/01/19 04:08:48;;;;;;;12.73;2.33;;;2.50;99.90;;;;;;5019934;28;20050;-67
2021/01/19 04:11:16;;;;;;;6.57;1.60;;;2.40;99.90;;;;;;5019536;28;20088;-67
2021/01/19 04:13:42;;;;;;;6.83;1.80;;;2.40;99.90;;;;;;5007843;28;20532;-67
2021/01/19 04:16:09;;;;;;;5.73;1.70;;;2.40;99.90;;;;;;5004803;28;20463;-67
2021/01/19 04:18:36;;;;;;;9.27;2.13;;;2.30;99.90;;;;;;5007552;28;20050;-67
2021/01/19 04:21:02;;;;;;;5.70;2.17;;;2.30;99.90;;;;;;5007816;28;20042;-67
2021/01/19 04:23:29;;;;;;;9.37;2.40;;;2.30;99.90;;;;;;5005952;28;20460;-67
2021/01/19 04:25:55;;;;;;;10.20;2.00;;;2.30;99.90;;;;;;5007255;28;20084;-67
2021/01/19 04:28:24;;;;;;;4.33;1.73;;;2.20;99.90;;;;;;5007530;28;20050;-67
2021/01/19 04:31:02;;;;;;;9.10;2.40;;;2.30;99.90;;;;;;5006956;28;20221;-67
2021/01/19 04:33:29;;;;;;;8.47;2.57;;;2.30;99.90;;;;;;5005855;28;20143;-67
2021/01/19 04:35:56;;;;;;;5.93;2.17;;;2.30;99.90;;;;;;5008991;28;20108;-67
2021/01/19 04:38:23;;;;;;;9.43;2.20;;;2.30;99.90;;;;;;5008722;28;20054;-67
2021/01/19 04:40:49;;;;;;;7.50;2.17;;;2.20;99.90;;;;;;5008576;28;20050;-67
2021/01/19 04:43:17;;;;;;;5.50;1.93;;;2.20;99.90;;;;;;5006558;28;20050;-67
2021/01/19 04:45:46;;;;;;;4.90;1.80;;;2.30;99.90;;;;;;5004233;28;20108;-67
2021/01/19 04:48:13;;;;;;;6.40;2.27;;;2.30;99.90;;;;;;5008556;28;20462;-67
2021/01/19 04:50:41;;;;;;;5.97;2.00;;;2.30;99.90;;;;;;5008812;28;20550;-67
2021/01/19 04:53:12;;;;;;;6.33;2.30;;;2.30;99.90;;;;;;5007312;28;20056;-67
2021/01/19 04:55:46;;;;;;;4.93;2.00;;;2.30;99.90;;;;;;5008143;28;20500;-67
2021/01/19 04:58:21;;;;;;;6.87;3.03;;;2.30;99.90;;;;;;5006520;28;20054;-67
2021/01/19 05:01:04;;;;;;;4.03;1.73;;;2.30;99.90;;;;;;5006655;28;20562;-67
2021/01/19 05:03:39;;;;;;;7.73;1.80;;;2.30;99.90;;;;;;5005886;28;20093;-67
2021/01/19 05:06:16;;;;;;;9.07;2.00;;;2.30;99.90;;;;;;5005252;28;20049;-67
2021/01/19 05:09:07;;;;;;;8.60;2.10;;;2.30;99.90;;;;;;5006660;28;20045;-67
2021/01/19 05:11:52;;;;;;;10.23;3.90;;;2.40;99.90;;;;;;5007882;28;20046;-67
2021/01/19 05:14:20;;;;;;;5.40;1.87;;;2.40;99.90;;;;;;5004867;28;20061;-67
2021/01/19 05:16:49;;;;;;;8.63;2.17;;;2.30;99.90;;;;;;5007020;28;20060;-67
2021/01/19 05:19:17;;;;;;;5.63;3.07;;;2.30;99.90;;;;;;5008184;28;20511;-67
2021/01/19 05:21:48;;;;;;;8.03;2.07;;;2.30;99.90;;;;;;5008262;28;20049;-67
2021/01/19 05:24:15;;;;;;;7.33;2.23;;;2.30;99.90;;;;;;5006470;28;20053;-67
2021/01/19 05:26:42;;;;;;;5.93;1.77;;;2.30;99.90;;;;;;5008270;28;20050;-67
2021/01/19 05:29:09;;;;;;;6.80;2.03;;;2.40;99.90;;;;;;5007503;28;20065;-67
2021/01/19 05:31:36;;;;;;;10.67;2.10;;;2.40;99.90;;;;;;5007711;28;20108;-67
2021/01/19 05:34:06;;;;;;;6.33;1.80;;;2.40;99.90;;;;;;5009010;28;20053;-67
2021/01/19 05:36:36;;;;;;;6.90;2.10;;;2.40;99.90;;;;;;5010095;28;20096;-67
2021/01/19 05:39:05;;;;;;;7.83;1.97;;;2.40;99.90;;;;;;5009579;28;20054;-67
2021/01/19 05:41:35;;;;;;;6.77;2.63;;;2.40;99.90;;;;;;5010037;28;20435;-67
2021/01/19 05:44:23;;;;;;;9.43;1.97;;;2.50;99.90;;;;;;5009359;28;20551;-67
2021/01/19 05:46:52;;;;;;;7.57;2.00;;;2.40;99.90;;;;;;5019496;28;20068;-67
2021/01/19 05:49:24;;;;;;;5.80;2.27;;;2.50;99.90;;;;;;5007048;28;20089;-67
2021/01/19 05:51:55;;;;;;;6.03;2.67;;;2.50;99.90;;;;;;5005845;28;20155;-66
2021/01/19 05:54:24;;;;;;;3.43;1.73;;;2.60;99.90;;;;;;5005090;28;20506;-67
2021/01/19 05:56:50;;;;;;;6.50;2.00;;;2.60;99.90;;;;;;5009667;28;20239;-67
2021/01/19 05:59:28;;;;;;;5.50;1.87;;;2.60;99.90;;;;;;5009259;28;20256;-67
2021/01/19 06:01:59;;;;;;;5.53;2.00;;;2.60;99.90;;;;;;5009901;28;20136;-67
2021/01/19 06:04:35;;;;;;;6.37;2.40;;;2.50;99.90;;;;;;5008912;28;20049;-67
2021/01/19 06:07:02;;;;;;;9.43;2.47;;;2.50;99.90;;;;;;5010014;28;20115;-67
2021/01/19 06:09:28;;;;;;;9.40;2.53;;;2.50;99.90;;;;;;5009335;28;20523;-67
2021/01/19 06:11:56;;;;;;;7.20;2.80;;;2.40;99.90;;;;;;5009472;28;20523;-67
2021/01/19 06:14:24;;;;;;;6.93;2.60;;;2.60;99.90;;;;;;5008703;28;20520;-67
2021/01/19 06:16:50;;;;;;;6.23;2.60;;;2.50;99.90;;;;;;5016116;28;20328;-67
2021/01/19 06:19:27;;;;;;;7.47;2.00;;;2.40;99.90;;;;;;5029243;28;20049;-67
2021/01/19 06:21:55;;;;;;;8.17;2.23;;;2.50;99.90;;;;;;5028996;28;20053;-67
2021/01/19 06:24:32;;;;;;;12.30;2.33;;;2.50;99.90;;;;;;5028638;28;20057;-67
2021/01/19 06:26:58;;;;;;;7.38;2.75;;;2.40;99.90;;;;;;5029063;28;20184;-67
2021/01/19 06:29:26;;;;;;;6.03;2.20;;;2.40;99.90;;;;;;5028885;28;20107;-67
2021/01/19 06:31:56;;;;;;;7.03;2.43;;;2.40;99.90;;;;;;5029413;28;20446;-67
2021/01/19 06:34:25;;;;;;;8.63;2.80;;;2.40;99.90;;;;;;5028626;28;20136;-67
2021/01/19 06:36:52;;;;;;;6.70;2.13;;;2.40;99.90;;;;;;5029055;28;20049;-67
2021/01/19 06:39:37;;;;;;;7.27;2.43;;;2.40;99.90;;;;;;5031616;28;20553;-67
2021/01/19 06:42:14;;;;;;;9.50;2.60;;;2.40;99.90;;;;;;5029629;28;20068;-67
2021/01/19 06:44:47;;;;;;;6.80;2.57;;;2.30;99.90;;;;;;5018346;28;20057;-67
2021/01/19 06:47:15;;;;;;;5.87;2.47;;;2.40;99.90;;;;;;5009337;28;20580;-67
2021/01/19 06:49:42;;;;;;;4.73;2.13;;;2.40;99.90;;;;;;5009489;28;20049;-67
2021/01/19 06:52:11;;;;;;;4.67;2.00;;;2.30;99.90;;;;;;5012311;28;20053;-67
2021/01/19 06:55:05;;;;;;;7.17;2.27;;;2.30;99.90;;;;;;5014849;28;20069;-67
2021/01/19 06:57:34;;;;;;;7.70;2.40;;;2.30;99.90;;;;;;5003541;28;20137;-68
2021/01/19 07:00:09;;;;;;;8.03;2.60;;;2.30;99.90;;;;;;5011015;28;20566;-71
2021/01/19 07:02:37;;;;;;;5.60;2.20;;;2.30;99.90;;;;;;5010348;28;20107;-69
2021/01/19 07:05:09;;;;;;;11.00;2.53;;;2.30;99.90;;;;;;5010832;28;20453;-69
2021/01/19 07:07:46;;;;;;;10.90;2.53;;;2.50;99.90;;;;;;5010871;28;20049;-69
2021/01/19 07:10:16;;;;;;;6.33;2.50;;;2.30;99.90;;;;;;5010986;28;20049;-69
2021/01/19 07:13:00;;;;;;;9.93;2.37;;;2.30;99.90;;;;;;5011137;28;20057;-69
2021/01/19 07:16:05;;;;;;;7.03;2.20;;;2.30;99.90;;;;;;5019630;28;20174;-68
2021/01/19 07:19:01;;;;;;;9.70;2.60;;;2.40;99.90;;;;;;4980654;28;20055;-68
2021/01/19 07:21:49;;;;;;;6.53;2.60;;;2.40;99.90;;;;;;5011568;28;20030;-69
2021/01/19 07:24:21;;;;;;;5.00;2.33;;;2.40;99.90;;;;;;4995434;28;20050;-69
2021/01/19 07:26:52;;;;;;;8.80;2.47;;;2.40;99.90;;;;;;5002884;28;20074;-69
2021/01/19 07:29:20;;;;;;;8.13;2.70;;;2.40;99.90;;;;;;5013156;28;20085;-69
2021/01/19 07:31:47;;;;;;;7.33;2.67;;;2.50;99.90;;;;;;5009099;28;20053;-68
2021/01/19 07:34:16;;;;;;;8.13;2.07;;;2.50;99.90;;;;;;4996099;28;20461;-69
2021/01/19 07:36:52;;;;;;;8.60;2.90;;;2.50;99.90;;;;;;4995038;28;20439;-69
2021/01/19 07:39:20;;;;;;;7.80;2.80;;;2.50;99.90;;;;;;4993662;28;20046;-69
2021/01/19 07:41:48;;;;;;;6.50;2.30;;;2.60;99.90;;;;;;5006884;28;20504;-69
2021/01/19 07:44:22;;;;;;;6.37;2.30;;;2.60;99.90;;;;;;5014841;28;20739;-69
2021/01/19 07:46:49;;;;;;;6.67;2.30;;;2.60;99.90;;;;;;5024752;28;20201;-69
2021/01/19 07:49:16;;;;;;;7.00;2.10;;;2.60;99.90;;;;;;5012724;28;20598;-69
2021/01/19 07:51:44;;;;;;;8.43;2.27;;;2.60;99.90;;;;;;5012367;28;20057;-68
2021/01/19 07:54:11;;;;;;;5.80;2.13;;;2.60;99.90;;;;;;5011498;28;20565;-69
2021/01/19 07:56:38;;;;;;;7.97;2.43;;;2.60;99.90;;;;;;5012776;28;20494;-69
2021/01/19 07:59:15;;;;;;;8.60;3.43;;;2.60;99.90;;;;;;5012353;28;20049;-69
2021/01/19 08:01:42;;;;;;;6.70;2.20;;;2.70;99.90;;;;;;5012551;28;20124;-69
2021/01/19 08:04:10;;;;;;;6.67;2.10;;;2.70;99.90;;;;;;5010926;28;20430;-69
2021/01/19 08:06:37;;;;;;;9.63;2.30;;;2.70;99.90;;;;;;5025547;28;20179;-69
2021/01/19 08:09:13;;;;;;;11.37;2.50;;;2.70;99.90;;;;;;5028270;28;20053;-69
2021/01/19 08:11:42;;;;;;;7.65;2.20;;;2.80;99.90;;;;;;5017568;28;20505;-69
2021/01/19 08:14:10;;;;;;;6.07;3.07;;;2.80;99.90;;;;;;5014747;28;20050;-69
2021/01/19 08:16:38;;;;;;;6.47;2.33;;;2.80;99.90;;;;;;5017129;28;20047;-71
2021/01/19 08:19:06;;;;;;;7.47;2.30;;;2.70;99.90;;;;;;5030170;28;20076;-69
2021/01/19 08:21:34;;;;;;;11.00;2.27;;;2.80;99.90;;;;;;5014554;28;20072;-69
2021/01/19 08:24:04;;;;;;;4.60;2.03;;;2.80;99.90;;;;;;5007330;28;20057;-68
2021/01/19 08:26:31;;;;;;;6.93;2.20;;;2.90;99.90;;;;;;5006067;28;20270;-69
2021/01/19 08:28:59;;;;;;;7.50;2.30;;;2.80;99.90;;;;;;4997803;28;20505;-70
2021/01/19 08:31:29;;;;;;;5.40;1.90;;;2.70;99.90;;;;;;4999109;28;20077;-68
2021/01/19 08:34:07;;;;;;;9.30;3.00;;;2.70;99.90;;;;;;5004845;28;20054;-69
2021/01/19 08:36:35;;;;;;;3.53;1.60;;;2.80;99.90;;;;;;5006118;28;20046;-68
2021/01/19 08:39:09;;;;;;;7.77;2.43;;;2.70;99.90;;;;;;5006881;28;20061;-68
2021/01/19 08:41:42;;;;;;;9.80;2.50;;;2.60;99.90;;;;;;5006546;28;20061;-68
2021/01/19 08:44:10;;;;;;;6.03;2.20;;;2.70;99.90;;;;;;5004179;28;20109;-69
2021/01/19 08:46:39;;;;;;;5.17;2.30;;;2.70;99.90;;;;;;5026734;28;20099;-68
2021/01/19 08:49:07;;;;;;;8.40;3.43;;;2.70;99.90;;;;;;5030764;28;20069;-69
2021/01/19 08:51:35;;;;;;;6.90;2.13;;;2.70;99.90;;;;;;5037828;28;20049;-69
2021/01/19 08:54:02;;;;;;;7.23;2.30;;;2.70;99.90;;;;;;5038825;28;20061;-69
2021/01/19 08:56:29;;;;;;;6.90;2.10;;;2.70;99.90;;;;;;5036535;28;20711;-69
2021/01/19 08:58:56;;;;;;;10.60;2.60;;;2.70;99.90;;;;;;5025555;28;20041;-68
2021/01/19 09:01:23;;;;;;;7.23;2.63;;;2.70;99.90;;;;;;5010333;28;20157;-69
2021/01/19 09:03:57;;;;;;;6.03;2.30;;;2.70;99.90;;;;;;4999736;28;20054;-67
2021/01/19 09:06:24;;;;;;;6.87;2.43;;;2.70;99.90;;;;;;4993295;28;20562;-68
2021/01/19 09:08:56;;;;;;;7.47;2.57;;;2.80;99.90;;;;;;5000593;28;20049;-69
2021/01/19 09:11:29;;;;;;;4.77;1.90;;;2.80;99.90;;;;;;4994501;28;20442;-68
2021/01/19 09:14:02;;;;;;;5.60;1.97;;;2.90;99.90;;;;;;4995262;28;20057;-69
2021/01/19 09:16:33;;;;;;;5.37;2.03;;;2.80;99.90;;;;;;5010799;28;20057;-69
2021/01/19 09:19:04;;;;;;;9.63;2.23;;;2.80;99.90;;;;;;5025394;28;20092;-69
2021/01/19 09:21:32;;;;;;;8.70;2.20;;;2.90;99.90;;;;;;5026930;28;20543;-68
2021/01/19 09:23:59;;;;;;;6.57;1.93;;;2.90;99.90;;;;;;5023084;28;20051;-68
2021/01/19 09:26:26;;;;;;;10.47;2.53;;;3.00;99.90;;;;;;5005707;28;20046;-68
2021/01/19 09:28:53;;;;;;;7.37;2.13;;;3.00;99.90;;;;;;5012883;28;20057;-68
2021/01/19 09:31:22;;;;;;;8.83;2.40;;;3.00;99.90;;;;;;5005642;28;20450;-68
2021/01/19 09:33:50;;;;;;;5.67;2.30;;;3.00;99.90;;;;;;5015116;28;20098;-68
2021/01/19 09:36:18;;;;;;;6.50;1.90;;;3.00;99.90;;;;;;5019154;28;20578;-68
2021/01/19 09:38:49;;;;;;;5.77;2.20;;;3.10;99.90;;;;;;5001161;28;20054;-69
2021/01/19 09:41:19;;;;;;;9.67;2.47;;;3.10;99.90;;;;;;4997166;28;20050;-68
2021/01/19 09:43:48;;;;;;;7.37;2.13;;;3.10;99.90;;;;;;5011970;28;20068;-68
2021/01/19 09:46:16;;;;;;;5.83;2.00;;;3.20;99.90;;;;;;5025298;28;20091;-69
2021/01/19 09:48:46;;;;;;;5.90;1.80;;;3.30;99.90;;;;;;5025311;28;20064;-68
2021/01/19 09:51:12;;;;;;;5.67;2.23;;;3.40;99.90;;;;;;5015339;28;20081;-68
2021/01/19 09:53:41;;;;;;;4.33;2.00;;;3.30;99.90;;;;;;5009176;28;20108;-69
2021/01/19 09:56:15;;;;;;;7.20;2.30;;;3.30;99.90;;;;;;5006121;28;20531;-69
2021/01/19 09:58:42;;;;;;;8.20;2.33;;;3.40;99.90;;;;;;5023603;28;20517;-69
2021/01/19 10:01:09;;;;;;;6.03;2.00;;;3.40;99.90;;;;;;5021339;28;20060;-69
2021/01/19 10:03:36;;;;;;;7.50;3.00;;;3.30;99.90;;;;;;5001847;28;20049;-68
2021/01/19 10:06:05;;;;;;;4.57;2.13;;;3.30;99.90;;;;;;5001030;28;20137;-69
2021/01/19 10:08:32;;;;;;;8.57;2.20;;;3.30;99.90;;;;;;5015864;28;20107;-69
2021/01/19 10:11:00;;;;;;;8.33;2.13;;;3.20;99.90;;;;;;5023803;28;20440;-69
2021/01/19 10:13:28;;;;;;;5.57;2.10;;;3.30;99.90;;;;;;5019920;28;20141;-68
2021/01/19 10:16:00;;;;;;;5.73;2.27;;;3.40;99.90;;;;;;5008548;28;20424;-69
2021/01/19 10:18:27;;;;;;;4.87;1.90;;;3.40;99.90;;;;;;5001258;28;20145;-68
2021/01/19 10:20:54;;;;;;;5.73;1.90;;;3.30;99.90;;;;;;4999957;28;20288;-68
2021/01/19 10:23:31;;;;;;;6.30;2.23;;;3.20;99.90;;;;;;4994961;28;20327;-68
2021/01/19 10:26:09;;;;;;;8.23;2.47;;;3.30;99.90;;;;;;5002480;28;20507;-70
2021/01/19 10:28:44;;;;;;;7.23;2.53;;;3.30;99.90;;;;;;5019921;28;20084;-68
2021/01/19 10:31:18;;;;;;;6.30;2.13;;;3.20;99.90;;;;;;5023643;28;20140;-66
2021/01/19 10:34:00;;;;;;;4.87;2.27;;;3.30;99.90;;;;;;4999647;28;20053;-67
2021/01/19 10:36:28;;;;;;;8.00;2.00;;;3.30;99.90;;;;;;5008371;28;20077;-67
2021/01/19 10:39:00;;;;;;;7.67;2.10;;;3.30;99.90;;;;;;5028196;28;20207;-67
2021/01/19 10:41:29;;;;;;;5.77;1.67;;;3.30;99.90;;;;;;5027689;28;20434;-67
2021/01/19 10:43:57;;;;;;;8.07;2.47;;;3.20;99.90;;;;;;5015526;28;20393;-66
2021/01/19 10:46:26;;;;;;;6.93;2.30;;;3.10;99.90;;;;;;5007649;28;20255;-67
2021/01/19 10:49:03;;;;;;;5.00;2.10;;;3.10;99.90;;;;;;5008578;28;20046;-69
2021/01/19 10:51:30;;;;;;;11.83;2.30;;;3.00;99.90;;;;;;5007699;28;20068;-67
2021/01/19 10:54:11;;;;;;;5.43;2.17;;;3.00;99.90;;;;;;5007116;28;20050;-66
2021/01/19 10:56:40;;;;;;;10.60;2.57;;;3.00;99.90;;;;;;5017205;28;20078;-67
2021/01/19 10:59:07;;;;;;;8.43;3.90;;;3.00;99.90;;;;;;5029413;28;20054;-66
2021/01/19 11:01:34;;;;;;;9.90;2.40;;;2.90;99.90;;;;;;5019555;28;20050;-67
2021/01/19 11:04:01;;;;;;;8.47;2.17;;;3.00;99.90;;;;;;5032978;28;20045;-67
2021/01/19 11:06:33;;;;;;;9.93;3.00;;;2.90;99.90;;;;;;5050010;28;20048;-67
2021/01/19 11:08:59;;;;;;;10.17;2.80;;;3.00;99.90;;;;;;5033714;28;20053;-67
2021/01/19 11:11:26;;;;;;;7.47;1.97;;;2.90;99.90;;;;;;5027783;28;20524;-67
2021/01/19 11:13:59;;;;;;;6.23;2.10;;;3.00;99.90;;;;;;5029577;28;20054;-67
2021/01/19 11:16:31;;;;;;;7.97;1.97;;;2.90;99.90;;;;;;5030368;28;20050;-66
2021/01/19 11:19:02;;;;;;;10.17;2.43;;;2.90;99.90;;;;;;5033233;28;20065;-66
2021/01/19 11:21:30;;;;;;;7.47;2.50;;;2.90;99.90;;;;;;5035846;28;20053;-67
2021/01/19 11:23:56;;;;;;;5.97;2.00;;;2.90;99.90;;;;;;5046813;28;20450;-66
2021/01/19 11:26:23;;;;;;;8.07;2.10;;;2.90;99.90;;;;;;5052613;28;20054;-67
2021/01/19 11:28:50;;;;;;;11.27;2.77;;;2.90;99.90;;;;;;5052847;28;20072;-66
2021/01/19 11:31:22;;;;;;;8.67;2.20;;;2.90;99.90;;;;;;5050673;28;20038;-67
2021/01/19 11:33:48;;;;;;;10.90;2.57;;;2.80;99.90;;;;;;5029860;28;20053;-67
2021/01/19 11:36:23;;;;;;;10.07;2.00;;;2.80;99.90;;;;;;5032365;28;20054;-67
2021/01/19 11:38:50;;;;;;;9.77;2.10;;;2.70;99.90;;;;;;5030501;28;20061;-67
2021/01/19 11:41:18;;;;;;;8.43;2.57;;;2.70;99.90;;;;;;5032239;28;20065;-67
2021/01/19 11:43:45;;;;;;;10.30;2.70;;;2.70;99.90;;;;;;5026406;28;20060;-68
2021/01/19 11:46:13;;;;;;;7.03;2.40;;;2.70;99.90;;;;;;5031393;28;20574;-67
2021/01/19 11:48:41;;;;;;;5.43;2.63;;;2.60;99.90;;;;;;5029676;28;20049;-67
2021/01/19 11:51:07;;;;;;;9.70;2.97;;;2.50;99.90;;;;;;5027923;28;20398;-67
2021/01/19 11:53:34;;;;;;;9.30;3.53;;;2.50;99.90;;;;;;5044465;28;20057;-68
2021/01/19 11:56:02;;;;;;;9.33;2.87;;;2.40;99.90;;;;;;5025751;28;20049;-68
2021/01/19 11:58:29;;;;;;;5.93;2.20;;;2.30;99.90;;;;;;5011121;28;20060;-68
2021/01/19 12:00:56;;;;;;;10.27;2.50;;;2.30;99.90;;;;;;5010934;28;20058;-68
2021/01/19 12:03:23;;;;;;;11.93;2.40;;;2.30;99.90;;;;;;5009794;28;20042;-68
2021/01/19 12:05:50;;;;;;;10.37;2.70;;;2.10;99.90;;;;;;5010647;28;20050;-70
2021/01/19 12:08:17;;;;;;;9.20;3.67;;;2.10;99.90;;;;;;5010968;28;20061;-69
2021/01/19 12:10:44;;;;;;;12.90;2.83;;;2.00;99.90;;;;;;5011362;28;20099;-69
2021/01/19 12:13:12;;;;;;;6.97;2.83;;;2.00;99.90;;;;;;5006249;28;20045;-69
2021/01/19 12:15:39;;;;;;;8.37;3.00;;;1.90;99.90;;;;;;5010642;28;20049;-70
2021/01/19 12:18:06;;;;;;;8.63;3.10;;;1.80;99.90;;;;;;5011291;28;20400;-71
2021/01/19 12:20:32;;;;;;;9.10;2.77;;;1.80;99.90;;;;;;5012023;28;20052;-71
2021/01/19 12:23:00;;;;;;;6.27;2.77;;;1.80;99.90;;;;;;5010408;28;20057;-72
2021/01/19 12:25:27;;;;;;;13.70;4.27;;;1.70;99.90;;;;;;5008654;28;20042;-72
2021/01/19 12:27:53;;;;;;;17.03;4.80;;;1.60;99.90;;;;;;5009461;28;20050;-72
2021/01/19 12:30:21;;;;;;;9.83;3.93;;;1.70;99.90;;;;;;5003724;28;20046;-73
2021/01/19 12:32:47;;;;;;;15.03;4.27;;;1.60;99.90;;;;;;4999542;28;20128;-71
2021/01/19 12:35:14;;;;;;;11.97;3.50;;;1.70;99.90;;;;;;5009037;28;20050;-73
2021/01/19 12:37:40;;;;;;;6.53;2.70;;;1.60;99.90;;;;;;5010889;28;20524;-73
2021/01/19 12:40:09;;;;;;;8.63;3.30;;;1.60;99.90;;;;;;4998301;28;20054;-73
2021/01/19 12:42:36;;;;;;;8.87;3.90;;;1.60;99.90;;;;;;4989452;28;20065;-74
2021/01/19 12:45:03;;;;;;;9.40;3.73;;;1.50;99.90;;;;;;5007521;28;20049;-74
2021/01/19 12:47:29;;;;;;;13.73;3.67;;;1.50;99.90;;;;;;5008190;28;20061;-74
2021/01/19 12:49:56;;;;;;;13.47;3.80;;;1.50;99.90;;;;;;5007266;28;20050;-73
2021/01/19 12:52:23;;;;;;;14.83;4.00;;;1.50;99.90;;;;;;5006443;28;20423;-73
2021/01/19 12:54:49;;;;;;;12.00;4.17;;;1.50;99.90;;;;;;5006679;28;20451;-72
2021/01/19 12:57:16;;;;;;;11.03;3.83;;;1.50;99.90;;;;;;5006271;28;20338;-73
2021/01/19 12:59:43;;;;;;;7.90;3.60;;;1.50;99.90;;;;;;5006261;28;20052;-72
2021/01/19 13:02:10;;;;;;;15.33;4.70;;;1.50;99.90;;;;;;5006659;28;20050;-72
2021/01/19 13:04:37;;;;;;;14.73;4.77;;;1.50;99.90;;;;;;5006346;28;20056;-72
2021/01/19 13:07:04;;;;;;;11.50;4.13;;;1.60;99.90;;;;;;5007757;28;20050;-72